createdAt,value
2017-11-08T00:01:13.288Z,18.43
2017-11-08T00:03:40.764Z,17.37
2017-11-08T00:06:08.252Z,16.70
2017-11-08T00:08:35.725Z,16.37
2017-11-08T00:11:04.002Z,16.47
2017-11-08T00:13:31.506Z,16.07
2017-11-08T00:15:59.046Z,16.33
2017-11-08T00:18:26.516Z,17.43
2017-11-08T00:20:54.740Z,18.50
2017-11-08T00:23:22.933Z,16.93
2017-11-08T00:25:50.438Z,17.50
2017-11-08T00:28:17.961Z,16.53
2017-11-08T00:30:45.417Z,16.30
2017-11-08T00:33:12.884Z,17.70
2017-11-08T00:35:40.385Z,17.97
2017-11-08T00:38:08.647Z,17.70
2017-11-08T00:40:36.126Z,19.17
2017-11-08T00:43:04.391Z,15.73
2017-11-08T00:45:31.866Z,15.83
2017-11-08T00:48:00.091Z,18.37
2017-11-08T00:50:27.925Z,16.50
2017-11-08T00:52:55.494Z,18.37
2017-11-08T00:55:22.980Z,18.43
2017-11-08T00:57:50.439Z,20.10
2017-11-08T01:00:17.955Z,21.70
2017-11-08T01:02:45.549Z,20.90
2017-11-08T01:05:13.780Z,20.37
2017-11-08T01:07:41.310Z,19.67
2017-11-08T01:10:08.765Z,21.07
2017-11-08T01:12:36.238Z,19.97
2017-11-08T01:15:03.726Z,21.63
2017-11-08T01:17:31.207Z,20.50
2017-11-08T01:19:58.697Z,19.83
2017-11-08T01:22:26.942Z,18.00
2017-11-08T01:24:54.431Z,21.40
2017-11-08T01:27:22.676Z,18.73
2017-11-08T01:29:50.164Z,21.07
2017-11-08T01:32:17.640Z,23.30
2017-11-08T01:34:45.946Z,19.37
2017-11-08T01:37:13.411Z,21.30
2017-11-08T01:39:40.880Z,21.10
2017-11-08T01:42:08.388Z,21.37
2017-11-08T01:44:35.895Z,21.37
2017-11-08T01:47:03.388Z,20.57
2017-11-08T01:49:30.856Z,22.17
2017-11-08T01:51:58.350Z,22.37
2017-11-08T01:54:25.813Z,21.07
2017-11-08T01:56:53.301Z,23.33
2017-11-08T01:59:20.756Z,21.77
2017-11-08T02:01:49.006Z,19.77
2017-11-08T02:04:16.525Z,19.10
2017-11-08T02:06:43.982Z,18.50
2017-11-08T02:09:11.445Z,19.90
2017-11-08T02:11:38.924Z,19.60
2017-11-08T02:14:06.398Z,19.30
2017-11-08T02:16:33.908Z,17.87
2017-11-08T02:19:02.134Z,19.47
2017-11-08T02:21:29.603Z,18.23
2017-11-08T02:23:57.098Z,19.90
2017-11-08T02:26:24.596Z,18.40
2017-11-08T02:28:52.092Z,16.53
2017-11-08T02:31:19.559Z,18.27
2017-11-08T02:33:47.074Z,20.00
2017-11-08T02:36:15.305Z,18.17
2017-11-08T02:38:43.542Z,18.10
2017-11-08T02:41:11.030Z,21.50
2017-11-08T02:43:38.503Z,22.80
2017-11-08T02:46:05.986Z,22.17
2017-11-08T02:48:34.790Z,20.40
2017-11-08T02:51:02.273Z,22.67
2017-11-08T02:53:30.496Z,20.17
2017-11-08T02:55:57.991Z,17.77
2017-11-08T02:58:25.465Z,17.47
2017-11-08T03:00:53.752Z,16.20
2017-11-08T03:03:22.010Z,18.77
2017-11-08T03:05:49.524Z,19.47
2017-11-08T03:08:17.007Z,19.20
2017-11-08T03:10:44.495Z,17.33
2017-11-08T03:13:11.955Z,17.53
2017-11-08T03:15:39.431Z,17.50
2017-11-08T03:18:06.934Z,18.13
2017-11-08T03:20:34.390Z,17.00
2017-11-08T03:23:01.894Z,16.43
2017-11-08T03:25:29.347Z,18.37
2017-11-08T03:27:56.835Z,16.67
2017-11-08T03:30:24.388Z,17.87
2017-11-08T03:32:51.887Z,17.13
2017-11-08T03:35:20.872Z,19.07
2017-11-08T03:37:48.394Z,23.50
2017-11-08T03:40:15.840Z,22.87
2017-11-08T03:42:43.302Z,23.60
2017-11-08T03:45:10.819Z,22.20
2017-11-08T03:47:38.282Z,22.97
2017-11-08T03:52:33.229Z,21.57
2017-11-08T03:55:00.704Z,19.87
2017-11-08T03:57:28.216Z,22.13
2017-11-08T03:59:55.680Z,21.17
2017-11-08T04:02:23.143Z,21.00
2017-11-08T04:04:50.657Z,20.67
2017-11-08T04:07:18.200Z,22.97
2017-11-08T04:09:46.492Z,22.30
2017-11-08T04:12:14.057Z,22.00
2017-11-08T04:14:41.490Z,20.40
2017-11-08T04:17:08.994Z,20.27
2017-11-08T04:19:36.446Z,20.40
2017-11-08T04:22:03.947Z,19.50
2017-11-08T04:24:31.403Z,18.87
2017-11-08T04:26:58.865Z,19.47
2017-11-08T04:29:26.359Z,21.33
2017-11-08T04:31:53.820Z,18.30
2017-11-08T04:34:21.300Z,19.77
2017-11-08T04:36:49.585Z,20.33
2017-11-08T04:39:17.850Z,19.17
2017-11-08T04:41:45.309Z,19.40
2017-11-08T04:44:12.789Z,20.03
2017-11-08T04:46:41.053Z,19.13
2017-11-08T04:49:08.532Z,20.30
2017-11-08T04:51:37.126Z,19.33
2017-11-08T04:54:05.376Z,21.10
2017-11-08T04:56:32.893Z,20.57
2017-11-08T04:59:01.844Z,17.63
2017-11-08T05:01:30.112Z,18.07
2017-11-08T05:03:57.584Z,17.07
2017-11-08T05:06:25.045Z,19.90
2017-11-08T05:08:52.547Z,18.67
2017-11-08T05:11:19.999Z,19.20
2017-11-08T05:13:48.250Z,19.50
2017-11-08T05:16:15.712Z,19.00
2017-11-08T05:18:44.668Z,21.33
2017-11-08T05:21:12.149Z,19.77
2017-11-08T05:23:39.632Z,17.33
2017-11-08T05:26:07.122Z,17.70
2017-11-08T05:28:35.358Z,17.37
2017-11-08T05:31:02.845Z,17.67
2017-11-08T05:33:30.308Z,16.40
2017-11-08T05:35:57.806Z,16.30
2017-11-08T05:38:25.261Z,18.13
2017-11-08T05:40:52.748Z,15.40
2017-11-08T05:43:20.351Z,16.63
2017-11-08T05:45:47.821Z,16.20
2017-11-08T05:48:15.322Z,17.50
2017-11-08T05:50:42.797Z,17.67
2017-11-08T05:53:10.451Z,16.37
2017-11-08T05:55:37.921Z,18.00
2017-11-08T05:58:07.669Z,15.20
2017-11-08T06:00:35.857Z,18.53
2017-11-08T06:03:03.329Z,19.63
2017-11-08T06:05:30.844Z,19.63
2017-11-08T06:07:58.321Z,20.50
2017-11-08T06:10:25.764Z,18.60
2017-11-08T06:12:53.279Z,19.23
2017-11-08T06:15:20.768Z,20.60
2017-11-08T06:17:49.019Z,18.93
2017-11-08T06:20:16.491Z,20.47
2017-11-08T06:22:44.003Z,16.70
2017-11-08T06:25:11.462Z,18.90
2017-11-08T06:27:38.921Z,17.97
2017-11-08T06:30:06.458Z,18.80
2017-11-08T06:32:34.722Z,18.47
2017-11-08T06:35:02.180Z,20.00
2017-11-08T06:37:29.641Z,18.00
2017-11-08T06:39:57.154Z,17.77
2017-11-08T06:42:24.707Z,15.93
2017-11-08T06:44:52.185Z,17.60
2017-11-08T06:47:20.415Z,19.00
2017-11-08T06:49:47.901Z,19.20
2017-11-08T06:52:16.147Z,19.27
2017-11-08T06:54:43.636Z,19.07
2017-11-08T06:57:11.875Z,21.33
2017-11-08T06:59:39.375Z,21.10
2017-11-08T07:02:07.682Z,22.30
2017-11-08T07:04:35.095Z,21.30
2017-11-08T07:07:02.564Z,20.60
2017-11-08T07:09:30.096Z,22.67
2017-11-08T07:11:58.305Z,19.17
2017-11-08T07:14:25.816Z,18.47
2017-11-08T07:16:53.374Z,17.83
2017-11-08T07:19:21.640Z,19.47
2017-11-08T07:21:49.926Z,18.07
2017-11-08T07:24:18.141Z,17.30
2017-11-08T07:26:45.692Z,18.90
2017-11-08T07:29:13.155Z,17.17
2017-11-08T07:31:40.651Z,17.97
2017-11-08T07:34:08.145Z,16.10
2017-11-08T07:36:36.390Z,17.20
2017-11-08T07:39:03.863Z,18.07
2017-11-08T07:41:31.394Z,16.57
2017-11-08T07:43:58.851Z,16.30
2017-11-08T07:46:26.359Z,17.50
2017-11-08T07:48:53.868Z,16.70
2017-11-08T07:51:21.381Z,19.60
2017-11-08T07:53:48.872Z,18.70
2017-11-08T07:56:17.107Z,17.00
2017-11-08T07:58:44.619Z,19.40
2017-11-08T08:01:12.888Z,18.00
2017-11-08T08:03:41.124Z,21.47
2017-11-08T08:06:08.647Z,17.80
2017-11-08T08:08:36.894Z,17.13
2017-11-08T08:11:04.434Z,19.17
2017-11-08T08:13:31.991Z,17.17
2017-11-08T08:16:00.206Z,17.10
2017-11-08T08:18:27.738Z,16.90
2017-11-08T08:20:55.257Z,17.70
2017-11-08T08:23:22.724Z,20.03
2017-11-08T08:25:50.226Z,19.03
2017-11-08T08:28:17.755Z,18.70
2017-11-08T08:30:45.229Z,15.63
2017-11-08T08:33:12.733Z,16.87
2017-11-08T08:35:40.198Z,19.07
2017-11-08T08:38:07.780Z,17.13
2017-11-08T08:40:35.253Z,16.70
2017-11-08T08:43:03.541Z,16.90
2017-11-08T08:45:31.047Z,18.60
2017-11-08T08:47:58.509Z,18.73
2017-11-08T08:50:26.027Z,17.47
2017-11-08T08:52:54.323Z,17.47
2017-11-08T08:55:21.802Z,18.93
2017-11-08T08:57:49.291Z,19.20
2017-11-08T09:00:16.858Z,20.23
2017-11-08T09:02:44.360Z,18.10
2017-11-08T09:05:11.828Z,17.60
2017-11-08T09:07:40.056Z,17.60
2017-11-08T09:10:07.549Z,18.07
2017-11-08T09:12:35.048Z,18.00
2017-11-08T09:15:02.562Z,20.20
2017-11-08T09:17:30.040Z,18.27
2017-11-08T09:19:57.512Z,17.70
2017-11-08T09:22:24.949Z,17.97
2017-11-08T09:24:52.446Z,18.63
2017-11-08T09:27:20.676Z,17.10
2017-11-08T09:29:48.193Z,19.60
2017-11-08T09:32:15.671Z,17.90
2017-11-08T09:34:43.153Z,18.03
2017-11-08T09:37:10.623Z,15.30
2017-11-08T09:39:38.084Z,19.37
2017-11-08T09:42:05.610Z,18.83
2017-11-08T09:44:33.088Z,18.90
2017-11-08T09:47:00.606Z,17.17
2017-11-08T09:49:28.071Z,18.67
2017-11-08T09:51:55.563Z,18.10
2017-11-08T09:54:23.092Z,18.07
2017-11-08T09:56:50.537Z,18.37
2017-11-08T09:59:18.016Z,16.83
2017-11-08T10:01:45.802Z,19.70
2017-11-08T10:04:13.248Z,18.97
2017-11-08T10:06:40.839Z,17.30
2017-11-08T10:09:08.312Z,17.87
2017-11-08T10:11:35.779Z,16.47
2017-11-08T10:14:04.083Z,19.47
2017-11-08T10:16:31.595Z,19.77
2017-11-08T10:18:59.059Z,19.50
2017-11-08T10:21:27.290Z,19.07
2017-11-08T10:23:54.787Z,18.97
2017-11-08T10:26:22.263Z,19.53
2017-11-08T10:28:49.706Z,20.27
2017-11-08T10:31:17.207Z,17.90
2017-11-08T10:33:45.437Z,19.83
2017-11-08T10:36:12.997Z,20.70
2017-11-08T10:38:40.430Z,19.97
2017-11-08T10:41:07.961Z,20.33
2017-11-08T10:43:35.423Z,19.90
2017-11-08T10:46:02.930Z,18.30
2017-11-08T10:48:30.390Z,18.90
2017-11-08T10:50:57.967Z,20.10
2017-11-08T10:53:25.418Z,18.00
2017-11-08T10:55:52.921Z,18.23
2017-11-08T10:58:21.202Z,20.50
2017-11-08T11:00:49.514Z,19.77
2017-11-08T11:03:16.963Z,20.33
2017-11-08T11:05:44.537Z,20.70
2017-11-08T11:08:12.749Z,21.03
2017-11-08T11:10:40.266Z,19.33
2017-11-08T11:13:07.815Z,19.60
2017-11-08T11:15:36.094Z,20.70
2017-11-08T11:18:04.371Z,19.30
2017-11-08T11:20:32.633Z,19.60
2017-11-08T11:23:00.227Z,21.17
2017-11-08T11:25:27.702Z,21.57
2017-11-08T11:27:55.179Z,22.03
2017-11-08T11:30:22.650Z,20.67
2017-11-08T11:32:50.152Z,19.77
2017-11-08T11:35:17.666Z,20.77
2017-11-08T11:37:45.127Z,20.07
2017-11-08T11:40:12.568Z,18.77
2017-11-08T11:42:40.829Z,19.40
2017-11-08T11:45:09.103Z,20.00
2017-11-08T11:47:36.560Z,22.90
2017-11-08T11:50:04.173Z,22.20
2017-11-08T11:52:31.651Z,19.67
2017-11-08T11:54:59.172Z,20.90
2017-11-08T11:57:27.454Z,21.00
2017-11-08T11:59:54.941Z,22.97
2017-11-08T12:02:22.448Z,23.03
2017-11-08T12:04:49.901Z,22.43
2017-11-08T12:07:17.408Z,21.77
2017-11-08T12:09:44.861Z,21.40
2017-11-08T12:12:12.377Z,21.87
2017-11-08T12:14:39.837Z,23.37
2017-11-08T12:17:07.376Z,23.87
2017-11-08T12:19:35.599Z,21.67
2017-11-08T12:22:03.113Z,23.50
2017-11-08T12:24:31.333Z,22.77
2017-11-08T12:26:58.818Z,24.20
2017-11-08T12:29:26.365Z,22.57
2017-11-08T12:31:54.622Z,24.50
2017-11-08T12:34:22.158Z,23.07
2017-11-08T12:36:49.597Z,21.93
2017-11-08T12:39:17.097Z,24.47
2017-11-08T12:41:45.835Z,22.97
2017-11-08T12:44:13.402Z,24.60
2017-11-08T12:46:40.858Z,23.60
2017-11-08T12:49:08.488Z,23.80
2017-11-08T12:51:36.735Z,24.80
2017-11-08T12:54:04.540Z,23.33
2017-11-08T12:56:32.015Z,24.83
2017-11-08T12:58:59.469Z,24.73
2017-11-08T13:01:26.968Z,24.60
2017-11-08T13:03:54.467Z,24.80
2017-11-08T13:06:21.935Z,23.67
2017-11-08T13:08:49.406Z,24.17
2017-11-08T13:11:17.858Z,23.13
2017-11-08T13:13:45.381Z,24.80
2017-11-08T13:16:12.911Z,24.63
2017-11-08T13:18:40.380Z,26.10
2017-11-08T13:21:08.643Z,26.43
2017-11-08T13:23:36.093Z,25.70
2017-11-08T13:26:03.611Z,23.50
2017-11-08T13:28:32.028Z,26.10
2017-11-08T13:31:00.455Z,27.97
2017-11-08T13:33:28.143Z,26.33
2017-11-08T13:35:56.370Z,26.93
2017-11-08T13:38:24.468Z,27.57
2017-11-08T13:40:51.919Z,27.00
2017-11-08T13:43:19.422Z,27.87
2017-11-08T13:45:47.683Z,29.37
2017-11-08T13:48:15.177Z,29.43
2017-11-08T13:50:42.621Z,27.60
2017-11-08T13:53:10.165Z,26.70
2017-11-08T13:55:38.380Z,27.83
2017-11-08T13:58:05.863Z,28.50
2017-11-08T14:00:33.367Z,30.77
2017-11-08T14:03:01.665Z,25.73
2017-11-08T14:05:29.109Z,28.07
2017-11-08T14:07:57.344Z,28.87
2017-11-08T14:10:24.847Z,27.97
2017-11-08T14:12:52.382Z,29.40
2017-11-08T14:15:19.832Z,27.07
2017-11-08T14:17:47.294Z,29.10
2017-11-08T14:20:14.771Z,27.17
2017-11-08T14:22:42.250Z,29.87
2017-11-08T14:25:09.764Z,29.13
2017-11-08T14:27:37.992Z,31.03
2017-11-08T14:30:05.548Z,28.63
2017-11-08T14:32:33.036Z,30.60
2017-11-08T14:35:01.219Z,26.70
2017-11-08T14:37:28.653Z,29.27
2017-11-08T14:39:56.157Z,29.03
2017-11-08T14:42:24.537Z,28.33
2017-11-08T14:44:52.774Z,27.93
2017-11-08T14:47:20.348Z,30.00
2017-11-08T14:49:47.831Z,28.37
2017-11-08T14:52:15.390Z,28.83
2017-11-08T14:54:42.863Z,26.60
2017-11-08T14:57:11.183Z,27.30
2017-11-08T14:59:40.286Z,28.40
2017-11-08T15:02:07.726Z,27.87
2017-11-08T15:04:35.205Z,28.07
2017-11-08T15:07:02.728Z,30.27
2017-11-08T15:09:30.167Z,30.17
2017-11-08T15:11:57.709Z,31.37
2017-11-08T15:14:25.155Z,27.77
2017-11-08T15:16:52.625Z,30.00
2017-11-08T15:19:20.198Z,28.87
2017-11-08T15:21:47.656Z,30.43
2017-11-08T15:24:15.132Z,27.67
2017-11-08T15:26:42.669Z,28.10
2017-11-08T15:29:10.160Z,28.07
2017-11-08T15:31:37.682Z,29.20
2017-11-08T15:34:05.139Z,27.67
2017-11-08T15:36:33.427Z,29.80
2017-11-08T15:39:01.670Z,28.13
2017-11-08T15:41:29.135Z,28.97
2017-11-08T15:43:57.418Z,28.67
2017-11-08T15:46:24.883Z,29.37
2017-11-08T15:48:52.394Z,28.63
2017-11-08T15:51:19.906Z,29.60
2017-11-08T15:53:47.389Z,29.43
2017-11-08T15:56:15.688Z,28.73
2017-11-08T15:58:43.901Z,31.77
2017-11-08T16:01:11.363Z,31.07
2017-11-08T16:03:38.874Z,31.20
2017-11-08T16:06:07.146Z,27.53
2017-11-08T16:08:34.608Z,29.63
2017-11-08T16:11:02.165Z,28.17
2017-11-08T16:13:29.602Z,28.43
2017-11-08T16:15:57.082Z,31.47
2017-11-08T16:18:24.575Z,27.73
2017-11-08T16:20:52.814Z,29.00
2017-11-08T16:23:20.336Z,28.07
2017-11-08T16:25:47.788Z,27.37
2017-11-08T16:28:16.209Z,27.20
2017-11-08T16:30:43.736Z,29.27
2017-11-08T16:33:11.224Z,28.10
2017-11-08T16:35:38.746Z,30.97
2017-11-08T16:38:07.019Z,28.17
2017-11-08T16:40:34.424Z,29.30
2017-11-08T16:43:01.976Z,29.87
2017-11-08T16:45:29.488Z,27.87
2017-11-08T16:47:57.036Z,31.63
2017-11-08T16:50:24.488Z,29.20
2017-11-08T16:52:52.945Z,29.83
2017-11-08T16:55:20.669Z,29.27
2017-11-08T16:57:48.186Z,27.97
2017-11-08T17:00:15.642Z,29.77
2017-11-08T17:02:43.180Z,28.57
2017-11-08T17:05:10.684Z,31.93
2017-11-08T17:07:38.146Z,27.90
2017-11-08T17:10:05.664Z,27.50
2017-11-08T17:12:33.120Z,26.70
2017-11-08T17:15:00.693Z,27.57
2017-11-08T17:17:28.171Z,28.73
2017-11-08T17:19:56.458Z,26.97
2017-11-08T17:22:23.965Z,27.27
2017-11-08T17:24:51.458Z,25.27
2017-11-08T17:27:18.979Z,27.67
2017-11-08T17:29:47.175Z,29.20
2017-11-08T17:32:14.678Z,30.47
2017-11-08T17:34:42.140Z,29.57
2017-11-08T17:37:10.410Z,29.23
2017-11-08T17:39:38.030Z,28.67
2017-11-08T17:42:05.459Z,28.50
2017-11-08T17:44:32.975Z,30.67
2017-11-08T17:47:00.511Z,30.97
2017-11-08T17:49:27.973Z,32.90
2017-11-08T17:51:55.492Z,28.40
2017-11-08T17:54:22.989Z,32.60
2017-11-08T17:56:50.406Z,28.87
2017-11-08T17:59:17.897Z,31.40
2017-11-08T18:01:45.377Z,27.80
2017-11-08T18:04:12.933Z,29.87
2017-11-08T18:06:40.428Z,31.67
2017-11-08T18:09:07.916Z,30.07
2017-11-08T18:11:35.404Z,30.37
2017-11-08T18:14:03.652Z,27.80
2017-11-08T18:16:31.140Z,28.57
2017-11-08T18:18:58.673Z,29.83
2017-11-08T18:21:26.136Z,29.40
2017-11-08T18:23:53.632Z,29.50
2017-11-08T18:26:21.869Z,30.17
2017-11-08T18:28:50.072Z,27.97
2017-11-08T18:31:17.632Z,26.87
2017-11-08T18:33:45.101Z,31.40
2017-11-08T18:36:12.569Z,29.30
2017-11-08T18:38:40.060Z,30.00
2017-11-08T18:41:08.328Z,31.57
2017-11-08T18:43:35.857Z,28.87
2017-11-08T18:46:03.345Z,29.37
2017-11-08T18:48:30.823Z,28.07
2017-11-08T18:50:59.165Z,31.97
2017-11-08T18:53:26.670Z,30.07
2017-11-08T18:55:54.920Z,30.70
2017-11-08T18:58:22.375Z,29.97
2017-11-08T19:00:49.955Z,28.53
2017-11-08T19:03:17.436Z,30.47
2017-11-08T19:05:45.703Z,29.90
2017-11-08T19:08:13.287Z,31.17
2017-11-08T19:10:40.699Z,30.50
2017-11-08T19:13:08.179Z,27.40
2017-11-08T19:15:36.448Z,30.00
2017-11-08T19:18:03.948Z,29.83
2017-11-08T19:20:32.257Z,30.40
2017-11-08T19:23:00.452Z,29.93
2017-11-08T19:25:27.979Z,32.47
2017-11-08T19:27:55.444Z,31.60
2017-11-08T19:30:23.683Z,28.60
2017-11-08T19:32:51.197Z,28.53
2017-11-08T19:35:19.404Z,29.77
2017-11-08T19:37:47.640Z,28.77
2017-11-08T19:40:15.931Z,29.87
2017-11-08T19:42:43.468Z,29.07
2017-11-08T19:45:10.917Z,32.10
2017-11-08T19:47:38.414Z,30.70
2017-11-08T19:50:06.670Z,30.20
2017-11-08T19:52:34.167Z,27.33
2017-11-08T19:55:01.655Z,27.27
2017-11-08T19:57:29.139Z,29.07
2017-11-08T19:59:56.678Z,27.97
2017-11-08T20:02:24.946Z,29.83
2017-11-08T20:04:52.351Z,28.33
2017-11-08T20:07:19.847Z,31.63
2017-11-08T20:09:48.122Z,29.20
2017-11-08T20:12:16.358Z,27.20
2017-11-08T20:14:43.858Z,28.33
2017-11-08T20:17:11.356Z,27.67
2017-11-08T20:19:38.899Z,29.90
2017-11-08T20:22:07.120Z,31.17
2017-11-08T20:24:34.637Z,30.10
2017-11-08T20:27:02.895Z,29.53
2017-11-08T20:29:30.358Z,33.77
2017-11-08T20:31:57.815Z,31.83
2017-11-08T20:34:25.279Z,32.57
2017-11-08T20:36:52.736Z,30.17
2017-11-08T20:39:20.252Z,30.00
2017-11-08T20:41:48.512Z,30.77
2017-11-08T20:44:15.974Z,30.37
2017-11-08T20:46:43.438Z,28.73
2017-11-08T20:49:11.738Z,32.20
2017-11-08T20:51:39.212Z,33.57
2017-11-08T20:54:06.714Z,28.63
2017-11-08T20:56:34.541Z,29.53
2017-11-08T20:59:02.146Z,29.27
2017-11-08T21:01:29.569Z,30.80
2017-11-08T21:03:57.055Z,29.13
2017-11-08T21:06:24.568Z,31.90
2017-11-08T21:08:52.793Z,29.97
2017-11-08T21:11:20.442Z,30.07
2017-11-08T21:13:47.981Z,30.27
2017-11-08T21:16:15.432Z,29.30
2017-11-08T21:18:43.720Z,31.30
2017-11-08T21:21:11.189Z,33.37
2017-11-08T21:23:39.455Z,30.60
2017-11-08T21:26:06.967Z,32.17
2017-11-08T21:28:34.441Z,31.77
2017-11-08T21:31:01.944Z,30.60
2017-11-08T21:33:29.414Z,28.73
2017-11-08T21:35:57.700Z,31.30
2017-11-08T21:38:25.965Z,33.20
2017-11-08T21:40:53.429Z,30.47
2017-11-08T21:43:21.778Z,31.40
2017-11-08T21:45:49.282Z,29.73
2017-11-08T21:48:17.534Z,33.50
2017-11-08T21:50:45.049Z,32.87
2017-11-08T21:53:12.499Z,32.87
2017-11-08T21:55:40.026Z,31.97
2017-11-08T21:58:07.674Z,30.47
2017-11-08T22:00:35.177Z,32.20
2017-11-08T22:03:03.431Z,33.10
2017-11-08T22:05:30.944Z,31.03
2017-11-08T22:07:58.399Z,30.80
2017-11-08T22:10:25.886Z,31.60
2017-11-08T22:12:53.331Z,30.83
2017-11-08T22:15:20.813Z,29.57
2017-11-08T22:17:48.328Z,29.40
2017-11-08T22:20:15.813Z,31.77
2017-11-08T22:22:43.337Z,31.27
2017-11-08T22:25:10.802Z,30.10
2017-11-08T22:27:38.396Z,30.07
2017-11-08T22:30:05.932Z,30.77
2017-11-08T22:32:33.412Z,30.17
2017-11-08T22:35:00.939Z,29.70
2017-11-08T22:37:28.615Z,30.27
2017-11-08T22:39:56.055Z,30.00
2017-11-08T22:42:23.547Z,31.20
2017-11-08T22:44:52.598Z,28.90
2017-11-08T22:47:20.045Z,30.57
2017-11-08T22:49:47.566Z,30.70
2017-11-08T22:52:15.024Z,30.90
2017-11-08T22:54:42.489Z,31.10
2017-11-08T22:57:09.972Z,30.97
2017-11-08T22:59:37.463Z,33.07
2017-11-08T23:02:04.938Z,30.90
2017-11-08T23:04:32.452Z,28.40
2017-11-08T23:06:59.904Z,33.60
2017-11-08T23:09:27.393Z,28.80
2017-11-08T23:11:54.856Z,30.67
2017-11-08T23:14:23.144Z,31.87
2017-11-08T23:16:51.391Z,30.40
2017-11-08T23:19:18.898Z,33.43
2017-11-08T23:21:46.439Z,31.07
2017-11-08T23:24:14.686Z,31.50
2017-11-08T23:26:42.165Z,31.23
2017-11-08T23:29:09.662Z,30.63
2017-11-08T23:31:37.910Z,28.27
2017-11-08T23:34:05.389Z,31.87
2017-11-08T23:36:33.796Z,33.30
2017-11-08T23:39:02.057Z,31.37
2017-11-08T23:41:30.283Z,30.60
2017-11-08T23:43:58.468Z,32.67
2017-11-08T23:46:25.969Z,30.30
2017-11-08T23:48:53.465Z,34.57
2017-11-08T23:51:20.950Z,30.67
2017-11-08T23:53:48.424Z,31.30
2017-11-08T23:56:15.901Z,29.70
2017-11-08T23:58:43.432Z,33.20
